Hilger, MT (59451)

8:06 AM MDT on July 24, 2016 (GMT -0600)
3rd Ave S Lewistown | | Change Station

Elev 3927 ft 47.06 °N, 109.42 °W | Updated 35 minutes ago

Clear
Clear
48.8 °F
Feels Like 49 °F
N
0.0
Wind Variable Wind from SSE
Gusts 2.0 mph

Today
High -- | Low -- °F
--% Chance of Precip.
Yesterday
High -- | Low -- °F
Precip. -- in
Pressure 30.06 in
Visibility 10.0 miles
Clouds Clear
Windchill 49 °F
Dew Point 44 °F
Humidity 85%
Rainfall 0.00 in
Snow Depth Not available.
5:47 AM 9:00 PM
Waning Gibbous, 76% visible
METAR KLWT 241354Z AUTO 00000KT 10SM CLR 16/07 A3015 RMK AO2 SLP177 T01610067
Pressure 30.06 in
Visibility 10.0 miles
Clouds Clear
Windchill 49 °F
Dew Point 44 °F
Humidity 85%
Rainfall 0.00 in
Snow Depth Not available.
5:47 AM 9:00 PM
Waning Gibbous, 76% visible
METAR KLWT 241354Z AUTO 00000KT 10SM CLR 16/07 A3015 RMK AO2 SLP177 T01610067

10-Day Weather Forecast

Almanac

Astronomy

Jul. 24, 2016 Rise Set
Actual Time
Civil Twilight
Nautical Twilight
Astronomical Twilight
Moon
Length of Visible Light
Length of Day
Tomorrow will be .
, % of the Moon is Illuminated

Today's Extremes

State Highs State Lows

Community

WunderPhotos

Upload Photos

1,927,058 photos uploaded!

WunderBlog® & News

Nearby

Air Quality

  Air Quality AQ Index Pollutant
Not available.

Snow Depth

Station Depth Elevation

Earthquake Activity

City Distance Mag. Time & Date
Minimum magnitude displayed is 2.5.

Coastal Water Temperatures

Place Temperature

Stations

Nearby Weather Stations

Station Location Temp. Windchill Dew Point Humidity Wind Precip. Elev Updated Type
                   

Watches & Warnings

There are currently no watches in effect.